Tuesday, October 16, 2018, 7:43 PM EDT
Back to Local

KIAG, Niagara Falls International Airport

Location: Niagara Falls, NY, United States Lat: 43.117
Local Time: 7:43 PM EDT (23:43 GMT) Lon: -78.933
Time Zone: US/Eastern Elev: 583 ft

Show me the last for .
Show Decoded

2018-10-16 18:53 METAR KIAG 162253Z 24013G21KT 10SM SCT042 BKN070 OVC090 10/03 A2995 RMK AO2 PK
                 WND 22027/2225 SLP151 T01000028 =
2018-10-16 17:53 METAR KIAG 162153Z 24015KT 10SM BKN041 OVC090 10/03 A2996 RMK AO2 PK WND
                 23030/2114 SLP156 T01000028 =
2018-10-16 16:53 METAR KIAG 162053Z 24021G30KT 10SM BKN045 11/02 A2997 RMK AO2 PK WND 23032/2000
                 SLP157 T01060022 56021 =
2018-10-16 15:53 METAR KIAG 161953Z 23024G29KT 10SM BKN040 11/02 A2998 RMK AO2 PK WND 22034/1939
                 SLP161 T01060022 =
2018-10-16 14:53 METAR KIAG 161853Z 24019G30KT 10SM SCT045 12/03 A3000 RMK AO2 PK WND 24030/1848
                 SLP166 T01170028 =
2018-10-16 13:53 METAR KIAG 161753Z 24019G25KT 10SM SCT040 11/03 A3003 RMK AO2 PK WND 23027/1702
                 SLP179 T01110028 10111 20022 58038 =
2018-10-16 12:53 METAR KIAG 161653Z 24014G21KT 10SM CLR 10/01 A3007 RMK AO2 SLP193 T01000006 =
2018-10-16 11:53 METAR KIAG 161553Z 27017G23KT 10SM CLR 08/M01 A3011 RMK AO2 PK WND 27027/1504
                 SLP205 T00831011 =
2018-10-16 10:53 METAR KIAG 161453Z 28016G23KT 10SM CLR 07/M02 A3015 RMK AO2 SLP219 T00671022
                 58002 =
2018-10-16 09:53 METAR KIAG 161353Z 25014KT 10SM CLR 05/M02 A3017 RMK AO2 SLP226 T00501022 =
2018-10-16 08:53 METAR KIAG 161253Z 27012KT 10SM CLR 03/M03 A3016 RMK AO2 SLP225 T00281028 =
2018-10-16 07:53 METAR KIAG 161153Z 25013KT 10SM CLR 02/M03 A3015 RMK AO2 SLP221 70008 T00221028
                 10033 20017 53006 =
2018-10-16 06:53 METAR KIAG 161053Z 24010KT 10SM CLR 02/M02 A3015 RMK AO2 SLP218 T00171022 =
2018-10-16 05:53 METAR KIAG 160953Z AUTO 25010KT 10SM CLR 02/M03 A3014 RMK AO2 SLP217 T00221028 =
2018-10-16 04:53 METAR KIAG 160853Z AUTO 25010KT 10SM CLR 02/M03 A3014 RMK AO2 SLP214 T00221028
                 53001 =
2018-10-16 03:53 METAR KIAG 160753Z AUTO 25013KT 10SM CLR 03/M03 A3013 RMK AO2 SLP211 T00281028 =
2018-10-16 02:53 METAR KIAG 160653Z AUTO 25010KT 10SM CLR 03/M03 A3014 RMK AO2 SLP213 T00281028 =
2018-10-16 01:53 METAR KIAG 160553Z AUTO 24011KT 10SM CLR 03/M02 A3013 RMK AO2 SLP212 T00281022
                 10083 20028 51010 =
2018-10-16 00:53 METAR KIAG 160453Z AUTO 25013KT 10SM CLR 04/M03 A3013 RMK AO2 SLP209 T00391033
                 401440039 =
2018-10-15 23:53 METAR KIAG 160353Z AUTO 26013KT 10SM BKN050 04/M03 A3012 RMK AO2 SLP205
                 T00441033 =
2018-10-15 22:53 METAR KIAG 160253Z 26013KT 10SM SCT055 05/M03 A3010 RMK AO2 SLP200 T00501033
                 51043 =
2018-10-15 21:53 METAR KIAG 160153Z 27016G28KT 10SM BKN055 06/M03 A3007 RMK AO2 PK WND 29032/0057
                 SLP191 T00611033 =
2018-10-15 20:53 METAR KIAG 160053Z 29027G32KT 10SM SCT055 07/M01 A3002 RMK AO2 PK WND 28033/2358
                 PRESRR SLP174 T00721011 =
2018-10-15 19:53 METAR KIAG 152353Z 28022G31KT 10SM BKN050 08/01 A2997 RMK AO2 PK WND 28034/2335
                 SLP156 60000 T00830006 10128 20083 53030 =

Support USWX by starting your Amazon purchase here.